Time;durP1;ratioP1;P1;durP2;ratioP2;P2;SDS_P1;SDS_P2;PMS_P1;PMS_P2;Temp;Humidity;BMP_temperature;BMP_pressure;BME280_temperature;BME280_humidity;BME280_pressure;Samples;Min_cycle;Max_cycle;Signal;HPM_P1;HPM_P2
2023/07/23 00:02:22;;;;;;;9.20;8.27;;;;;;;;;;5113671;28;20541;-69
2023/07/23 00:04:50;;;;;;;10.00;9.00;;;;;;;;;;5113645;28;20436;-69
2023/07/23 00:07:17;;;;;;;10.60;8.23;;;;;;;;;;5113733;28;20532;-69
2023/07/23 00:09:44;;;;;;;9.53;8.63;;;;;;;;;;5113486;28;20470;-69
2023/07/23 00:12:12;;;;;;;9.07;7.70;;;;;;;;;;5113628;28;20441;-70
2023/07/23 00:14:39;;;;;;;12.43;8.40;;;;;;;;;;5113467;28;20460;-68
2023/07/23 00:17:07;;;;;;;12.20;9.00;;;;;;;;;;5114038;28;20452;-69
2023/07/23 00:19:36;;;;;;;11.67;8.50;;;;;;;;;;5113488;28;20517;-69
2023/07/23 00:22:03;;;;;;;10.97;9.70;;;;;;;;;;5113193;28;20458;-70
2023/07/23 00:24:30;;;;;;;15.07;9.83;;;;;;;;;;5113472;28;20685;-69
2023/07/23 00:26:58;;;;;;;10.83;9.27;;;;;;;;;;5113678;28;20454;-69
2023/07/23 00:29:25;;;;;;;13.70;11.50;;;;;;;;;;5113737;28;20487;-69
2023/07/23 00:31:52;;;;;;;12.33;10.70;;;;;;;;;;5113428;28;20446;-69
2023/07/23 00:34:19;;;;;;;13.30;9.90;;;;;;;;;;5113303;28;20444;-68
2023/07/23 00:36:48;;;;;;;11.80;10.00;;;;;;;;;;5113739;28;20444;-69
2023/07/23 00:39:15;;;;;;;10.60;9.50;;;;;;;;;;5113422;28;20446;-68
2023/07/23 00:41:42;;;;;;;15.10;10.97;;;;;;;;;;5113357;28;20448;-68
2023/07/23 00:44:09;;;;;;;13.97;11.80;;;;;;;;;;5112957;28;20446;-68
2023/07/23 00:46:37;;;;;;;13.67;11.40;;;;;;;;;;5112903;28;20446;-68
2023/07/23 00:49:04;;;;;;;14.10;10.77;;;;;;;;;;5113113;28;20477;-69
2023/07/23 00:51:31;;;;;;;12.20;10.33;;;;;;;;;;5112920;28;20446;-69
2023/07/23 00:54:00;;;;;;;14.43;11.80;;;;;;;;;;5113150;28;20911;-69
2023/07/23 00:56:28;;;;;;;14.07;11.10;;;;;;;;;;5112809;28;20442;-68
2023/07/23 00:58:55;;;;;;;11.67;10.40;;;;;;;;;;5112597;28;20499;-69
2023/07/23 01:01:22;;;;;;;15.20;10.30;;;;;;;;;;5113569;28;20439;-69
2023/07/23 01:03:50;;;;;;;12.17;10.60;;;;;;;;;;5113205;28;20564;-69
2023/07/23 01:06:18;;;;;;;11.57;10.40;;;;;;;;;;5117142;28;20524;-69
2023/07/23 01:08:47;;;;;;;11.37;9.47;;;;;;;;;;5116945;28;20476;-69
2023/07/23 01:11:16;;;;;;;12.87;10.73;;;;;;;;;;5116633;28;20441;-69
2023/07/23 01:13:45;;;;;;;13.40;11.20;;;;;;;;;;5116923;28;20445;-69
2023/07/23 01:16:12;;;;;;;11.20;10.03;;;;;;;;;;5116497;28;20441;-69
2023/07/23 01:18:40;;;;;;;12.37;11.00;;;;;;;;;;5116240;28;21025;-69
2023/07/23 01:21:09;;;;;;;16.00;10.70;;;;;;;;;;5116453;28;20437;-71
2023/07/23 01:23:38;;;;;;;10.60;9.20;;;;;;;;;;5116412;28;20444;-69
2023/07/23 01:26:07;;;;;;;12.80;11.50;;;;;;;;;;5116049;28;20446;-69
2023/07/23 01:28:34;;;;;;;11.07;9.50;;;;;;;;;;5116066;28;20988;-69
2023/07/23 01:31:01;;;;;;;14.17;9.27;;;;;;;;;;5116314;28;20447;-69
2023/07/23 01:33:28;;;;;;;11.80;10.30;;;;;;;;;;5115953;28;20444;-69
2023/07/23 01:35:57;;;;;;;11.27;10.03;;;;;;;;;;5116317;28;20512;-69
2023/07/23 01:38:25;;;;;;;12.03;10.17;;;;;;;;;;5116097;28;20445;-69
2023/07/23 01:40:53;;;;;;;11.80;10.43;;;;;;;;;;5115755;28;20621;-69
2023/07/23 01:43:21;;;;;;;12.00;10.20;;;;;;;;;;5115757;28;20930;-69
2023/07/23 01:45:48;;;;;;;13.60;9.10;;;;;;;;;;5115961;28;20516;-69
2023/07/23 01:48:16;;;;;;;10.83;8.87;;;;;;;;;;5115806;28;20437;-69
2023/07/23 01:50:44;;;;;;;12.90;9.53;;;;;;;;;;5115492;28;20522;-69
2023/07/23 01:53:11;;;;;;;9.87;8.87;;;;;;;;;;5115959;28;20531;-68
2023/07/23 01:55:38;;;;;;;15.70;7.90;;;;;;;;;;5116049;28;20797;-69
2023/07/23 01:58:07;;;;;;;13.70;9.20;;;;;;;;;;5115821;28;20445;-69
2023/07/23 02:00:34;;;;;;;8.67;7.77;;;;;;;;;;5115210;28;20554;-69
2023/07/23 02:03:01;;;;;;;12.10;8.73;;;;;;;;;;5115665;28;20450;-68
2023/07/23 02:05:28;;;;;;;11.10;8.60;;;;;;;;;;5115131;28;20444;-69
2023/07/23 02:07:55;;;;;;;9.47;8.00;;;;;;;;;;5115853;28;20438;-69
2023/07/23 02:10:23;;;;;;;10.00;7.53;;;;;;;;;;5115325;28;20505;-69
2023/07/23 02:12:50;;;;;;;9.40;8.47;;;;;;;;;;5115523;28;20784;-69
2023/07/23 02:15:19;;;;;;;10.40;8.43;;;;;;;;;;5114631;28;20799;-69
2023/07/23 02:17:46;;;;;;;13.37;8.67;;;;;;;;;;5115405;28;20437;-68
2023/07/23 02:20:13;;;;;;;9.47;8.23;;;;;;;;;;5115221;28;20449;-69
2023/07/23 02:22:40;;;;;;;18.93;9.07;;;;;;;;;;5115871;28;20447;-69
2023/07/23 02:25:08;;;;;;;8.87;7.97;;;;;;;;;;5115462;28;20447;-69
2023/07/23 02:27:35;;;;;;;10.67;8.77;;;;;;;;;;5115058;28;20457;-69
2023/07/23 02:30:03;;;;;;;11.77;8.60;;;;;;;;;;5114943;28;20477;-69
2023/07/23 02:32:32;;;;;;;8.17;7.37;;;;;;;;;;5114913;28;20765;-69
2023/07/23 02:35:00;;;;;;;9.77;8.40;;;;;;;;;;5115189;28;20440;-69
2023/07/23 02:37:27;;;;;;;9.77;8.40;;;;;;;;;;5114505;28;20450;-69
2023/07/23 02:39:54;;;;;;;11.17;8.03;;;;;;;;;;5114555;28;20446;-68
2023/07/23 02:42:21;;;;;;;8.87;7.80;;;;;;;;;;5114794;28;20443;-69
2023/07/23 02:44:48;;;;;;;10.17;7.40;;;;;;;;;;5114646;28;20443;-69
2023/07/23 02:47:15;;;;;;;10.43;7.87;;;;;;;;;;5114474;28;20809;-69
2023/07/23 02:49:44;;;;;;;9.80;7.80;;;;;;;;;;5114608;28;20503;-69
2023/07/23 02:52:12;;;;;;;11.47;7.67;;;;;;;;;;5114711;28;20440;-69
2023/07/23 02:54:41;;;;;;;8.80;7.90;;;;;;;;;;5114315;28;20993;-69
2023/07/23 02:57:09;;;;;;;16.70;8.20;;;;;;;;;;5114660;28;20860;-69
2023/07/23 02:59:36;;;;;;;9.30;8.17;;;;;;;;;;5114211;28;20846;-69
2023/07/23 03:02:03;;;;;;;15.60;8.77;;;;;;;;;;5114418;28;20450;-69
2023/07/23 03:04:30;;;;;;;8.63;7.47;;;;;;;;;;5114445;28;20462;-68
2023/07/23 03:06:59;;;;;;;11.70;7.90;;;;;;;;;;5114571;28;20803;-69
2023/07/23 03:09:26;;;;;;;9.43;7.40;;;;;;;;;;5114413;28;20479;-69
2023/07/23 03:11:53;;;;;;;15.00;8.40;;;;;;;;;;5114244;28;20541;-69
2023/07/23 03:14:20;;;;;;;10.60;8.00;;;;;;;;;;5114289;28;20440;-69
2023/07/23 03:16:47;;;;;;;9.90;7.50;;;;;;;;;;5114166;28;20441;-68
2023/07/23 03:19:14;;;;;;;11.13;8.43;;;;;;;;;;5114194;28;20448;-69
2023/07/23 03:21:42;;;;;;;10.40;7.50;;;;;;;;;;5114114;28;20437;-69
2023/07/23 03:24:10;;;;;;;11.60;8.30;;;;;;;;;;5114160;28;20444;-69
2023/07/23 03:26:37;;;;;;;9.63;7.20;;;;;;;;;;5113338;28;20446;-69
2023/07/23 03:29:05;;;;;;;8.30;7.33;;;;;;;;;;5114076;28;20472;-69
2023/07/23 03:31:32;;;;;;;11.10;7.63;;;;;;;;;;5114262;28;20435;-69
2023/07/23 03:33:59;;;;;;;16.67;7.70;;;;;;;;;;5113989;28;20435;-69
2023/07/23 03:36:27;;;;;;;8.67;7.43;;;;;;;;;;5114062;28;20431;-69
2023/07/23 03:38:54;;;;;;;12.00;7.57;;;;;;;;;;5113602;28;20450;-69
2023/07/23 03:41:23;;;;;;;8.20;7.13;;;;;;;;;;5113948;28;20769;-69
2023/07/23 03:43:50;;;;;;;8.83;7.23;;;;;;;;;;5113896;28;20533;-69
2023/07/23 03:46:17;;;;;;;7.70;6.90;;;;;;;;;;5113424;28;20445;-68
2023/07/23 03:48:47;;;;;;;10.07;7.27;;;;;;;;;;5113828;28;20437;-69
2023/07/23 03:51:15;;;;;;;9.10;8.00;;;;;;;;;;5126003;28;20487;-69
2023/07/23 03:53:43;;;;;;;7.37;6.63;;;;;;;;;;5130867;27;20438;-69
2023/07/23 03:56:10;;;;;;;8.50;7.57;;;;;;;;;;5133099;28;20437;-69
2023/07/23 03:58:38;;;;;;;8.53;7.00;;;;;;;;;;5132841;28;20449;-69
2023/07/23 04:01:05;;;;;;;11.90;7.17;;;;;;;;;;5133399;28;20433;-69
2023/07/23 04:03:33;;;;;;;10.47;7.30;;;;;;;;;;5132489;28;20501;-69
2023/07/23 04:06:00;;;;;;;8.70;7.77;;;;;;;;;;5133181;28;20435;-69
2023/07/23 04:08:27;;;;;;;9.83;7.10;;;;;;;;;;5133669;28;20453;-69
2023/07/23 04:10:55;;;;;;;8.30;6.60;;;;;;;;;;5132908;28;20473;-69
2023/07/23 04:13:23;;;;;;;8.83;6.60;;;;;;;;;;5133346;28;20489;-69
2023/07/23 04:15:51;;;;;;;8.67;6.97;;;;;;;;;;5133130;28;20442;-69
2023/07/23 04:18:18;;;;;;;8.87;6.37;;;;;;;;;;5133451;28;20789;-68
2023/07/23 04:20:45;;;;;;;9.50;7.27;;;;;;;;;;5133286;28;20930;-69
2023/07/23 04:23:13;;;;;;;10.60;7.27;;;;;;;;;;5133192;28;20445;-69
2023/07/23 04:25:40;;;;;;;17.10;8.10;;;;;;;;;;5133373;28;20445;-69
2023/07/23 04:28:07;;;;;;;10.40;7.10;;;;;;;;;;5133315;28;20452;-69
2023/07/23 04:30:34;;;;;;;9.87;7.97;;;;;;;;;;5133209;28;20475;-69
2023/07/23 04:33:03;;;;;;;11.30;7.37;;;;;;;;;;5133145;28;20501;-69
2023/07/23 04:35:30;;;;;;;9.17;7.57;;;;;;;;;;5133760;28;20445;-69
2023/07/23 04:37:57;;;;;;;7.60;6.90;;;;;;;;;;5133600;27;20441;-69
2023/07/23 04:40:24;;;;;;;11.97;7.20;;;;;;;;;;5137344;27;20439;-70
2023/07/23 04:42:52;;;;;;;9.40;7.20;;;;;;;;;;5137988;27;20449;-70
2023/07/23 04:45:19;;;;;;;13.53;7.30;;;;;;;;;;5137493;27;20449;-69
2023/07/23 04:47:46;;;;;;;14.80;8.23;;;;;;;;;;5137211;27;20444;-69
2023/07/23 04:50:15;;;;;;;13.60;7.60;;;;;;;;;;5136900;27;20478;-69
2023/07/23 04:52:42;;;;;;;9.90;7.70;;;;;;;;;;5136576;27;20436;-70
2023/07/23 04:55:09;;;;;;;8.90;7.03;;;;;;;;;;5137003;27;20541;-69
2023/07/23 04:57:38;;;;;;;12.00;7.80;;;;;;;;;;5137167;27;20448;-69
2023/07/23 05:00:06;;;;;;;7.90;6.50;;;;;;;;;;5136956;27;20473;-70
2023/07/23 05:02:33;;;;;;;8.60;7.27;;;;;;;;;;5137181;27;20845;-69
2023/07/23 05:05:02;;;;;;;9.37;6.80;;;;;;;;;;5137095;27;20842;-70
2023/07/23 05:07:31;;;;;;;7.40;6.70;;;;;;;;;;5137155;27;20798;-69
2023/07/23 05:09:58;;;;;;;8.47;6.53;;;;;;;;;;5136162;27;20485;-69
2023/07/23 05:12:25;;;;;;;9.30;6.80;;;;;;;;;;5136388;27;20528;-70
2023/07/23 05:14:54;;;;;;;7.53;6.30;;;;;;;;;;5136568;27;20533;-69
2023/07/23 05:17:21;;;;;;;8.87;6.57;;;;;;;;;;5136707;27;20543;-69
2023/07/23 05:19:49;;;;;;;10.30;6.47;;;;;;;;;;5136588;27;20450;-69
2023/07/23 05:22:16;;;;;;;6.93;6.23;;;;;;;;;;5136762;27;20439;-69
2023/07/23 05:24:45;;;;;;;9.70;7.50;;;;;;;;;;5136523;27;20443;-69
2023/07/23 05:27:12;;;;;;;8.00;6.90;;;;;;;;;;5136490;27;20436;-67
2023/07/23 05:29:39;;;;;;;8.67;6.33;;;;;;;;;;5136341;27;20487;-68
2023/07/23 05:32:07;;;;;;;8.97;7.17;;;;;;;;;;5135946;27;20445;-68
2023/07/23 05:34:34;;;;;;;7.30;6.23;;;;;;;;;;5136265;27;20451;-68
2023/07/23 05:37:01;;;;;;;7.20;6.50;;;;;;;;;;5136623;27;20433;-67
2023/07/23 05:39:29;;;;;;;8.10;6.30;;;;;;;;;;5136500;27;20798;-67
2023/07/23 05:41:58;;;;;;;9.90;6.50;;;;;;;;;;5136496;27;20558;-67
2023/07/23 05:44:26;;;;;;;11.20;6.27;;;;;;;;;;5136353;27;20435;-67
2023/07/23 05:46:53;;;;;;;6.53;5.90;;;;;;;;;;5136469;27;20445;-67
2023/07/23 05:49:20;;;;;;;7.23;6.27;;;;;;;;;;5135976;27;20791;-67
2023/07/23 05:51:48;;;;;;;6.10;5.50;;;;;;;;;;5135330;27;20945;-68
2023/07/23 05:54:15;;;;;;;11.13;6.17;;;;;;;;;;5135826;27;20459;-68
2023/07/23 05:56:42;;;;;;;10.23;5.47;;;;;;;;;;5135833;27;20460;-68
2023/07/23 05:59:10;;;;;;;9.50;5.70;;;;;;;;;;5135882;27;20481;-68
2023/07/23 06:01:38;;;;;;;5.97;4.90;;;;;;;;;;5136137;27;20444;-67
2023/07/23 06:04:05;;;;;;;6.83;5.90;;;;;;;;;;5136036;27;20445;-68
2023/07/23 06:06:32;;;;;;;8.73;5.67;;;;;;;;;;5135564;27;20452;-68
2023/07/23 06:08:59;;;;;;;7.93;5.67;;;;;;;;;;5135401;27;20442;-68
2023/07/23 06:11:26;;;;;;;7.07;5.50;;;;;;;;;;5134857;27;20976;-68
2023/07/23 06:13:54;;;;;;;6.43;5.47;;;;;;;;;;5135335;27;20434;-68
2023/07/23 06:16:23;;;;;;;8.03;5.63;;;;;;;;;;5135898;27;20479;-67
2023/07/23 06:18:50;;;;;;;6.93;6.27;;;;;;;;;;5135493;27;20967;-67
2023/07/23 06:21:17;;;;;;;7.17;5.40;;;;;;;;;;5135966;27;20774;-67
2023/07/23 06:23:44;;;;;;;5.53;5.00;;;;;;;;;;5135525;27;20449;-68
2023/07/23 06:26:11;;;;;;;6.40;5.80;;;;;;;;;;5135537;27;20452;-68
2023/07/23 06:28:38;;;;;;;8.00;5.10;;;;;;;;;;5135352;27;20444;-68
2023/07/23 06:31:06;;;;;;;5.97;5.17;;;;;;;;;;5134950;27;20469;-67
2023/07/23 06:33:34;;;;;;;5.93;5.43;;;;;;;;;;5134730;27;20436;-68
2023/07/23 06:36:02;;;;;;;5.37;4.87;;;;;;;;;;5135524;27;20799;-68
2023/07/23 06:38:29;;;;;;;7.53;5.10;;;;;;;;;;5135244;27;20449;-66
2023/07/23 06:40:57;;;;;;;5.53;5.00;;;;;;;;;;5135523;27;20450;-69
2023/07/23 06:43:24;;;;;;;7.53;5.27;;;;;;;;;;5134887;27;20968;-69
2023/07/23 06:45:52;;;;;;;6.70;5.20;;;;;;;;;;5134895;27;20972;-68
2023/07/23 06:48:20;;;;;;;7.57;4.30;;;;;;;;;;5135116;27;20442;-68
2023/07/23 06:50:49;;;;;;;7.90;4.57;;;;;;;;;;5134655;27;20484;-68
2023/07/23 06:53:16;;;;;;;5.93;4.90;;;;;;;;;;5134136;27;20450;-68
2023/07/23 06:55:59;;;;;;;9.20;4.87;;;;;;;;;;5134985;27;20461;-68
2023/07/23 06:58:26;;;;;;;11.20;5.30;;;;;;;;;;5134729;27;20455;-69
2023/07/23 07:00:54;;;;;;;5.13;4.50;;;;;;;;;;5134431;27;20478;-67
2023/07/23 07:03:21;;;;;;;5.00;4.50;;;;;;;;;;5134146;27;20442;-67
2023/07/23 07:05:49;;;;;;;6.30;4.50;;;;;;;;;;5134247;27;20444;-68
2023/07/23 07:08:16;;;;;;;5.10;4.60;;;;;;;;;;5134572;27;20819;-67
2023/07/23 07:10:44;;;;;;;5.40;4.43;;;;;;;;;;5133755;27;20649;-67
2023/07/23 07:13:11;;;;;;;4.87;4.30;;;;;;;;;;5133584;27;20454;-67
2023/07/23 07:15:38;;;;;;;6.67;4.27;;;;;;;;;;5134282;27;20452;-67
2023/07/23 07:18:05;;;;;;;4.80;4.00;;;;;;;;;;5134851;27;20754;-67
2023/07/23 07:20:32;;;;;;;5.63;4.10;;;;;;;;;;5134319;27;20440;-68
2023/07/23 07:23:01;;;;;;;6.93;4.53;;;;;;;;;;5134485;27;20456;-67
2023/07/23 07:25:28;;;;;;;3.80;3.50;;;;;;;;;;5134091;27;20931;-67
2023/07/23 07:27:55;;;;;;;4.00;3.70;;;;;;;;;;5134396;27;20449;-68
2023/07/23 07:30:22;;;;;;;4.47;3.83;;;;;;;;;;5133918;27;20474;-68
2023/07/23 07:32:50;;;;;;;6.77;3.77;;;;;;;;;;5134165;27;20447;-67
2023/07/23 07:35:17;;;;;;;4.23;3.80;;;;;;;;;;5133554;27;20450;-67
2023/07/23 07:37:44;;;;;;;4.83;4.43;;;;;;;;;;5134290;27;20451;-67
2023/07/23 07:40:14;;;;;;;4.37;3.97;;;;;;;;;;5133718;27;20436;-68
2023/07/23 07:42:41;;;;;;;6.50;3.60;;;;;;;;;;5134652;27;20448;-68
2023/07/23 07:45:09;;;;;;;5.30;3.73;;;;;;;;;;5134414;27;20441;-68
2023/07/23 07:47:36;;;;;;;5.27;4.00;;;;;;;;;;5134103;27;20438;-67
2023/07/23 07:50:05;;;;;;;6.50;4.27;;;;;;;;;;5133707;27;20793;-67
2023/07/23 07:52:32;;;;;;;4.13;3.83;;;;;;;;;;5133599;27;20449;-67
2023/07/23 07:55:00;;;;;;;4.57;3.70;;;;;;;;;;5133671;27;20453;-68
2023/07/23 07:57:28;;;;;;;4.33;3.70;;;;;;;;;;5133908;27;20445;-68
2023/07/23 07:59:56;;;;;;;5.10;4.00;;;;;;;;;;5133526;28;20479;-67
2023/07/23 08:02:23;;;;;;;5.67;3.70;;;;;;;;;;5133583;28;20449;-67
2023/07/23 08:04:51;;;;;;;3.20;2.90;;;;;;;;;;5134009;28;20521;-67
2023/07/23 08:07:19;;;;;;;7.90;3.80;;;;;;;;;;5133600;28;20449;-68
2023/07/23 08:09:47;;;;;;;4.00;3.57;;;;;;;;;;5133335;28;20947;-68
2023/07/23 08:12:14;;;;;;;9.83;3.80;;;;;;;;;;5133069;28;20489;-67
2023/07/23 08:14:43;;;;;;;3.23;2.93;;;;;;;;;;5137674;27;20437;-67
2023/07/23 08:17:11;;;;;;;6.03;3.33;;;;;;;;;;5138258;27;20441;-68
2023/07/23 08:19:39;;;;;;;3.90;3.10;;;;;;;;;;5138156;27;20759;-67
2023/07/23 08:22:06;;;;;;;3.97;3.37;;;;;;;;;;5138110;27;20459;-66
2023/07/23 08:24:34;;;;;;;3.67;3.33;;;;;;;;;;5138060;27;20485;-67
2023/07/23 08:27:02;;;;;;;5.83;4.07;;;;;;;;;;5138013;27;20465;-68
2023/07/23 08:29:30;;;;;;;7.63;4.03;;;;;;;;;;5137289;27;20809;-68
2023/07/23 08:31:59;;;;;;;4.83;3.93;;;;;;;;;;5137373;27;20519;-68
2023/07/23 08:34:26;;;;;;;9.60;4.07;;;;;;;;;;5137307;27;20437;-67
2023/07/23 08:36:55;;;;;;;6.70;4.00;;;;;;;;;;5137548;27;20447;-68
2023/07/23 08:39:23;;;;;;;4.10;3.57;;;;;;;;;;5137653;27;20444;-69
2023/07/23 08:42:01;;;;;;;5.70;4.67;;;;;;;;;;5137614;27;20528;-67
2023/07/23 08:44:46;;;;;;;9.93;4.00;;;;;;;;;;5138285;27;20516;-68
2023/07/23 08:47:15;;;;;;;5.13;3.80;;;;;;;;;;5137221;27;20445;-68
2023/07/23 08:49:43;;;;;;;5.20;3.63;;;;;;;;;;5137242;27;20532;-67
2023/07/23 08:52:12;;;;;;;6.17;3.67;;;;;;;;;;5136786;27;20473;-68
2023/07/23 08:54:39;;;;;;;7.90;3.57;;;;;;;;;;5137054;27;20434;-67
2023/07/23 08:57:07;;;;;;;4.80;4.20;;;;;;;;;;5137537;27;20455;-67
2023/07/23 08:59:35;;;;;;;5.37;3.93;;;;;;;;;;5136508;27;20476;-68
2023/07/23 09:02:03;;;;;;;10.10;4.40;;;;;;;;;;5136722;27;20445;-67
2023/07/23 09:04:31;;;;;;;6.40;4.00;;;;;;;;;;5137208;27;20448;-67
2023/07/23 09:06:59;;;;;;;6.13;4.17;;;;;;;;;;5136913;27;20436;-67
2023/07/23 09:09:26;;;;;;;4.20;3.33;;;;;;;;;;5136534;27;20441;-68
2023/07/23 09:11:54;;;;;;;5.13;4.00;;;;;;;;;;5136561;27;20477;-68
2023/07/23 09:14:21;;;;;;;4.90;3.50;;;;;;;;;;5136193;27;20453;-68
2023/07/23 09:16:49;;;;;;;6.23;4.00;;;;;;;;;;5136800;27;20439;-67
2023/07/23 09:19:22;;;;;;;9.43;4.40;;;;;;;;;;5137085;27;20445;-67
2023/07/23 09:21:51;;;;;;;3.73;3.40;;;;;;;;;;5136775;27;20460;-67
2023/07/23 09:24:18;;;;;;;3.83;3.50;;;;;;;;;;5136508;27;20776;-67
2023/07/23 09:26:46;;;;;;;4.53;3.90;;;;;;;;;;5136654;27;20452;-68
2023/07/23 09:29:14;;;;;;;5.07;3.63;;;;;;;;;;5136444;27;20445;-67
2023/07/23 09:31:44;;;;;;;4.33;3.53;;;;;;;;;;5136063;27;20478;-68
2023/07/23 09:34:11;;;;;;;4.13;3.43;;;;;;;;;;5136326;27;20431;-68
2023/07/23 09:36:38;;;;;;;3.87;3.47;;;;;;;;;;5136245;27;20934;-67
2023/07/23 09:39:07;;;;;;;5.00;3.60;;;;;;;;;;5136714;27;20534;-68
2023/07/23 09:41:35;;;;;;;7.17;4.27;;;;;;;;;;5135933;27;20436;-68
2023/07/23 09:44:03;;;;;;;5.13;4.60;;;;;;;;;;5136959;27;20441;-67
2023/07/23 09:46:31;;;;;;;8.17;3.67;;;;;;;;;;5136303;27;20472;-67
2023/07/23 09:48:59;;;;;;;7.60;4.47;;;;;;;;;;5136224;27;20444;-67
2023/07/23 09:51:26;;;;;;;4.43;4.00;;;;;;;;;;5135549;27;20485;-68
2023/07/23 09:53:53;;;;;;;4.50;4.10;;;;;;;;;;5135003;27;20442;-68
2023/07/23 09:56:23;;;;;;;6.80;4.30;;;;;;;;;;5135292;27;20444;-67
2023/07/23 09:58:51;;;;;;;8.63;4.70;;;;;;;;;;5136065;27;20452;-67
2023/07/23 10:01:20;;;;;;;7.37;3.80;;;;;;;;;;5136092;27;20432;-68
2023/07/23 10:03:47;;;;;;;4.90;4.00;;;;;;;;;;5136069;27;20441;-68
2023/07/23 10:06:15;;;;;;;7.43;4.67;;;;;;;;;;5135918;27;20448;-67
2023/07/23 10:08:43;;;;;;;6.20;4.37;;;;;;;;;;5135904;27;20484;-67
2023/07/23 10:11:11;;;;;;;4.77;4.37;;;;;;;;;;5135422;27;20444;-67
2023/07/23 10:13:40;;;;;;;8.83;3.67;;;;;;;;;;5135218;27;20500;-67
2023/07/23 10:16:09;;;;;;;4.13;3.73;;;;;;;;;;5135076;27;20926;-67
2023/07/23 10:18:40;;;;;;;5.13;3.00;;;;;;;;;;5135160;27;20441;-67
2023/07/23 10:21:08;;;;;;;2.80;2.60;;;;;;;;;;5135537;27;20418;-67
2023/07/23 10:23:36;;;;;;;3.70;2.80;;;;;;;;;;5135028;27;20446;-67
2023/07/23 10:26:21;;;;;;;6.50;3.53;;;;;;;;;;5135236;27;20434;-67
2023/07/23 10:28:50;;;;;;;3.47;3.17;;;;;;;;;;5135505;27;20534;-67
2023/07/23 10:31:23;;;;;;;4.00;3.60;;;;;;;;;;5135012;27;20835;-67
2023/07/23 10:33:51;;;;;;;5.57;3.83;;;;;;;;;;5134979;27;20437;-67
2023/07/23 10:36:18;;;;;;;3.87;2.70;;;;;;;;;;5134129;27;20481;-67
2023/07/23 10:38:46;;;;;;;4.53;4.10;;;;;;;;;;5135291;27;20449;-67
2023/07/23 10:41:14;;;;;;;3.40;3.10;;;;;;;;;;5135360;27;20793;-67
2023/07/23 10:43:46;;;;;;;5.70;3.33;;;;;;;;;;5134932;27;20440;-67
2023/07/23 10:46:15;;;;;;;3.93;3.47;;;;;;;;;;5135319;27;20532;-67
2023/07/23 10:48:43;;;;;;;3.60;3.30;;;;;;;;;;5135221;27;20440;-67
2023/07/23 10:51:11;;;;;;;5.60;4.00;;;;;;;;;;5134670;27;20444;-67
2023/07/23 10:53:39;;;;;;;3.57;3.27;;;;;;;;;;5134102;27;20531;-67
2023/07/23 10:56:21;;;;;;;3.80;3.30;;;;;;;;;;5134638;27;20439;-68
2023/07/23 10:58:48;;;;;;;3.10;2.90;;;;;;;;;;5134901;27;20454;-68
2023/07/23 11:01:21;;;;;;;4.37;2.80;;;;;;;;;;5134716;27;20422;-68
2023/07/23 11:03:49;;;;;;;5.13;3.60;;;;;;;;;;5134845;27;20425;-67
2023/07/23 11:06:26;;;;;;;4.40;3.60;;;;;;;;;;5134708;27;20449;-68
2023/07/23 11:08:53;;;;;;;4.63;3.77;;;;;;;;;;5134641;27;20428;-68
2023/07/23 11:11:22;;;;;;;3.80;3.50;;;;;;;;;;5134192;27;20441;-68
2023/07/23 11:13:50;;;;;;;3.73;3.43;;;;;;;;;;5134060;27;20466;-67
2023/07/23 11:16:19;;;;;;;2.90;2.70;;;;;;;;;;5133875;27;20467;-67
2023/07/23 11:18:46;;;;;;;3.90;3.60;;;;;;;;;;5134433;27;20989;-67
2023/07/23 11:21:14;;;;;;;3.50;3.30;;;;;;;;;;5134469;27;20518;-67
2023/07/23 11:23:41;;;;;;;3.57;3.13;;;;;;;;;;5133844;27;20988;-67
2023/07/23 11:26:08;;;;;;;2.97;2.77;;;;;;;;;;5134232;27;20430;-67
2023/07/23 11:28:35;;;;;;;4.93;3.20;;;;;;;;;;5134005;27;20458;-67
2023/07/23 11:31:03;;;;;;;2.97;2.77;;;;;;;;;;5133661;27;20939;-67
2023/07/23 11:33:33;;;;;;;3.00;2.80;;;;;;;;;;5133561;27;20469;-67
2023/07/23 11:36:01;;;;;;;3.77;3.47;;;;;;;;;;5134498;27;20475;-68
2023/07/23 11:38:28;;;;;;;3.80;3.50;;;;;;;;;;5133787;27;20444;-68
2023/07/23 11:40:57;;;;;;;2.97;2.67;;;;;;;;;;5133623;27;20439;-67
2023/07/23 11:43:24;;;;;;;4.30;3.40;;;;;;;;;;5133734;27;20445;-68
2023/07/23 11:45:51;;;;;;;3.20;3.00;;;;;;;;;;5133860;27;20457;-67
2023/07/23 11:48:20;;;;;;;3.90;3.60;;;;;;;;;;5133640;27;20442;-67
2023/07/23 11:50:48;;;;;;;4.20;3.73;;;;;;;;;;5133875;27;20445;-67
2023/07/23 11:53:16;;;;;;;3.43;3.23;;;;;;;;;;5133158;27;20472;-67
2023/07/23 11:55:44;;;;;;;3.50;3.20;;;;;;;;;;5133773;27;20462;-67
2023/07/23 11:58:18;;;;;;;4.33;3.63;;;;;;;;;;5134077;27;20871;-67
2023/07/23 12:00:49;;;;;;;3.87;3.53;;;;;;;;;;5134058;28;20471;-67
2023/07/23 12:03:16;;;;;;;3.63;3.33;;;;;;;;;;5133794;28;20437;-68
2023/07/23 12:05:43;;;;;;;5.17;4.60;;;;;;;;;;5133747;28;20506;-68
2023/07/23 12:08:13;;;;;;;4.53;4.13;;;;;;;;;;5133526;28;20532;-67
2023/07/23 12:10:40;;;;;;;4.37;3.83;;;;;;;;;;5133155;28;20444;-67
2023/07/23 12:13:08;;;;;;;5.30;3.70;;;;;;;;;;5133413;28;20571;-67
2023/07/23 12:15:35;;;;;;;5.33;4.17;;;;;;;;;;5134133;28;20448;-67
2023/07/23 12:18:04;;;;;;;4.00;3.70;;;;;;;;;;5134336;28;20445;-67
2023/07/23 12:20:31;;;;;;;5.40;4.10;;;;;;;;;;5134145;28;20517;-67
2023/07/23 12:22:58;;;;;;;3.63;3.40;;;;;;;;;;5133769;28;20444;-67
2023/07/23 12:25:27;;;;;;;4.73;4.33;;;;;;;;;;5134016;28;20443;-67
2023/07/23 12:27:55;;;;;;;4.60;4.20;;;;;;;;;;5133552;28;20445;-67
2023/07/23 12:30:22;;;;;;;4.23;3.83;;;;;;;;;;5134039;28;20448;-67
2023/07/23 12:32:49;;;;;;;4.20;3.70;;;;;;;;;;5133569;28;20977;-68
2023/07/23 12:35:17;;;;;;;4.43;4.03;;;;;;;;;;5133505;28;20453;-68
2023/07/23 12:37:44;;;;;;;4.80;3.67;;;;;;;;;;5133620;28;20485;-68
2023/07/23 12:40:12;;;;;;;3.93;3.63;;;;;;;;;;5133488;28;20441;-68
2023/07/23 12:42:40;;;;;;;3.37;3.13;;;;;;;;;;5133856;28;20479;-68
2023/07/23 12:45:08;;;;;;;4.07;3.60;;;;;;;;;;5133770;28;20436;-69
2023/07/23 12:47:35;;;;;;;3.60;3.30;;;;;;;;;;5133831;28;20444;-68
2023/07/23 12:50:03;;;;;;;3.63;3.33;;;;;;;;;;5133763;28;20907;-69
2023/07/23 12:52:30;;;;;;;3.97;3.67;;;;;;;;;;5133394;28;20475;-69
2023/07/23 12:54:58;;;;;;;6.17;3.50;;;;;;;;;;5133708;28;20451;-69
2023/07/23 12:57:25;;;;;;;4.73;2.60;;;;;;;;;;5133795;28;20905;-70
2023/07/23 12:59:53;;;;;;;3.70;3.40;;;;;;;;;;5134336;27;20468;-69
2023/07/23 13:02:21;;;;;;;2.77;2.57;;;;;;;;;;5137504;27;20445;-70
2023/07/23 13:04:48;;;;;;;3.60;3.30;;;;;;;;;;5137111;27;20519;-70
2023/07/23 13:07:15;;;;;;;3.13;2.90;;;;;;;;;;5136165;27;20498;-70
2023/07/23 13:09:42;;;;;;;3.53;3.23;;;;;;;;;;5136269;27;20527;-70
2023/07/23 13:12:10;;;;;;;3.13;2.93;;;;;;;;;;5136549;27;20947;-70
2023/07/23 13:14:37;;;;;;;3.60;3.30;;;;;;;;;;5136727;27;20445;-70
2023/07/23 13:17:06;;;;;;;2.97;2.77;;;;;;;;;;5136829;27;20450;-70
2023/07/23 13:19:33;;;;;;;3.70;3.40;;;;;;;;;;5137184;27;20443;-70
2023/07/23 13:22:00;;;;;;;3.53;2.77;;;;;;;;;;5136781;27;20931;-70
2023/07/23 13:24:27;;;;;;;3.20;3.00;;;;;;;;;;5136952;27;20444;-70
2023/07/23 13:26:54;;;;;;;3.60;3.30;;;;;;;;;;5136665;27;20452;-70
2023/07/23 13:29:22;;;;;;;3.40;3.20;;;;;;;;;;5136421;27;20461;-70
2023/07/23 13:31:49;;;;;;;4.30;4.00;;;;;;;;;;5136455;27;20440;-70
2023/07/23 13:34:17;;;;;;;3.70;3.40;;;;;;;;;;5136355;27;21017;-70
2023/07/23 13:36:44;;;;;;;3.37;3.10;;;;;;;;;;5136090;27;20444;-70
2023/07/23 13:39:12;;;;;;;3.63;3.33;;;;;;;;;;5137006;27;20463;-70
2023/07/23 13:41:39;;;;;;;3.77;3.40;;;;;;;;;;5136573;27;20448;-70
2023/07/23 13:44:06;;;;;;;3.60;3.30;;;;;;;;;;5136286;27;20534;-70
2023/07/23 13:46:33;;;;;;;3.83;3.63;;;;;;;;;;5136420;27;20776;-70
2023/07/23 13:49:00;;;;;;;3.77;3.47;;;;;;;;;;5135591;27;20539;-70
2023/07/23 13:51:29;;;;;;;4.03;3.67;;;;;;;;;;5135431;27;20437;-70
2023/07/23 13:53:56;;;;;;;3.83;3.53;;;;;;;;;;5136016;27;20509;-70
2023/07/23 13:56:23;;;;;;;4.80;4.13;;;;;;;;;;5135470;27;20514;-70
2023/07/23 13:58:50;;;;;;;4.77;4.30;;;;;;;;;;5135484;27;20461;-70
2023/07/23 14:01:18;;;;;;;5.43;4.03;;;;;;;;;;5135470;27;20436;-70
2023/07/23 14:03:45;;;;;;;4.27;3.93;;;;;;;;;;5135776;27;20453;-70
2023/07/23 14:06:12;;;;;;;6.37;3.90;;;;;;;;;;5135718;27;20787;-70
2023/07/23 14:08:41;;;;;;;4.80;4.40;;;;;;;;;;5134841;27;20439;-70
2023/07/23 14:11:08;;;;;;;4.60;3.87;;;;;;;;;;5135221;27;20446;-70
2023/07/23 14:13:35;;;;;;;4.80;4.43;;;;;;;;;;5135211;27;20477;-70
2023/07/23 14:16:02;;;;;;;4.27;3.97;;;;;;;;;;5135039;27;20446;-69
2023/07/23 14:18:30;;;;;;;4.50;3.80;;;;;;;;;;5135990;27;20441;-69
2023/07/23 14:20:57;;;;;;;4.73;4.33;;;;;;;;;;5135706;27;20438;-69
2023/07/23 14:23:24;;;;;;;4.80;3.57;;;;;;;;;;5135698;27;20448;-69
2023/07/23 14:25:53;;;;;;;4.70;4.20;;;;;;;;;;5135640;27;20524;-69
2023/07/23 14:28:20;;;;;;;3.97;3.67;;;;;;;;;;5135469;27;20459;-69
2023/07/23 14:30:49;;;;;;;4.10;3.80;;;;;;;;;;5135783;27;20443;-69
2023/07/23 14:33:16;;;;;;;4.60;4.20;;;;;;;;;;5135787;27;20472;-69
2023/07/23 14:35:43;;;;;;;6.60;4.00;;;;;;;;;;5135604;27;20442;-69
2023/07/23 14:38:10;;;;;;;3.80;3.17;;;;;;;;;;5135511;27;20438;-69
2023/07/23 14:40:37;;;;;;;4.00;3.30;;;;;;;;;;5135786;27;20992;-69
2023/07/23 14:43:06;;;;;;;4.10;3.50;;;;;;;;;;5135671;27;20525;-69